Time;durP1;ratioP1;P1;durP2;ratioP2;P2;SDS_P1;SDS_P2;PMS_P1;PMS_P2;Temp;Humidity;BMP_temperature;BMP_pressure;BME280_temperature;BME280_humidity;BME280_pressure;Samples;Min_cycle;Max_cycle;Signal;HPM_P1;HPM_P2
2021/12/18 00:00:24;;;;;;;2.80;1.98;;;6.40;99.90;;;;;;5028906;28;20036;-51
2021/12/18 00:02:50;;;;;;;1.85;1.70;;;6.40;99.90;;;;;;5032378;28;20037;-51
2021/12/18 00:05:15;;;;;;;2.00;1.80;;;6.40;99.90;;;;;;5030098;28;20036;-54
2021/12/18 00:07:41;;;;;;;2.20;2.00;;;6.40;99.90;;;;;;5025137;28;20241;-56
2021/12/18 00:10:07;;;;;;;4.72;2.38;;;6.40;99.90;;;;;;5012237;28;20061;-49
2021/12/18 00:12:33;;;;;;;2.47;1.67;;;6.40;99.90;;;;;;5012046;28;20523;-50
2021/12/18 00:14:58;;;;;;;4.50;2.13;;;6.40;99.90;;;;;;5011867;28;20037;-50
2021/12/18 00:17:24;;;;;;;3.15;1.95;;;6.40;99.90;;;;;;5014253;28;20030;-49
2021/12/18 00:19:49;;;;;;;3.63;1.63;;;6.40;99.90;;;;;;5031434;28;20072;-53
2021/12/18 00:22:15;;;;;;;2.38;1.75;;;6.40;99.90;;;;;;5027988;28;20048;-52
2021/12/18 00:24:41;;;;;;;3.42;2.05;;;6.40;99.90;;;;;;5011702;28;20069;-51
2021/12/18 00:27:07;;;;;;;2.83;2.30;;;6.30;99.90;;;;;;5011890;28;20062;-51
2021/12/18 00:29:32;;;;;;;2.70;1.73;;;6.40;99.90;;;;;;5012445;28;20476;-54
2021/12/18 00:31:58;;;;;;;3.80;1.88;;;6.40;99.90;;;;;;5025041;28;20492;-52
2021/12/18 00:34:23;;;;;;;3.08;2.45;;;6.40;99.90;;;;;;5030326;28;20021;-58
2021/12/18 00:36:50;;;;;;;4.15;2.30;;;6.40;99.90;;;;;;5031008;28;20025;-53
2021/12/18 00:39:16;;;;;;;3.92;2.22;;;6.40;99.90;;;;;;5031638;28;20491;-56
2021/12/18 00:44:13;;;;;;;3.47;2.33;;;6.40;99.90;;;;;;5028838;28;20032;-54
2021/12/18 00:46:44;;;;;;;1.92;1.65;;;6.40;99.90;;;;;;5012214;28;20104;-56
2021/12/18 00:49:15;;;;;;;2.88;2.30;;;6.40;99.90;;;;;;5010631;28;20054;-54
2021/12/18 00:51:41;;;;;;;3.17;2.35;;;6.30;99.90;;;;;;5011444;28;20021;-57
2021/12/18 00:54:07;;;;;;;4.57;2.40;;;6.40;99.90;;;;;;5010311;28;20048;-54
2021/12/18 00:56:32;;;;;;;2.75;2.13;;;6.40;99.90;;;;;;5011065;28;20037;-54
2021/12/18 00:58:58;;;;;;;2.60;1.95;;;6.40;99.90;;;;;;5010291;28;20049;-56
2021/12/18 01:01:26;;;;;;;3.80;2.55;;;6.40;99.90;;;;;;5011236;28;20101;-55
2021/12/18 01:03:54;;;;;;;3.42;2.42;;;6.40;99.90;;;;;;5027266;28;20033;-52
2021/12/18 01:06:22;;;;;;;3.67;2.67;;;6.40;99.90;;;;;;5031137;28;20025;-50
2021/12/18 01:08:52;;;;;;;3.78;2.65;;;6.40;99.90;;;;;;5029756;28;20033;-51
2021/12/18 01:13:57;;;;;;;4.38;2.88;;;6.40;99.90;;;;;;5030093;28;20025;-54
2021/12/18 01:16:26;;;;;;;3.30;2.55;;;6.40;99.90;;;;;;5011194;28;20030;-51
2021/12/18 01:24:20;;;;;;;3.10;2.35;;;6.40;99.90;;;;;;5024427;28;20037;-51
2021/12/18 01:26:46;;;;;;;2.47;1.90;;;6.40;99.90;;;;;;5021695;28;20038;-49
2021/12/18 01:29:11;;;;;;;2.75;1.90;;;6.40;99.90;;;;;;5009536;28;20042;-52
2021/12/18 01:31:37;;;;;;;2.25;1.88;;;6.40;99.90;;;;;;5010977;28;20040;-49
2021/12/18 01:34:02;;;;;;;3.28;2.03;;;6.40;99.90;;;;;;5010461;28;20033;-52
2021/12/18 01:36:29;;;;;;;5.30;2.45;;;6.40;99.90;;;;;;5006614;28;20030;-49
2021/12/18 01:38:56;;;;;;;3.28;1.70;;;6.40;99.90;;;;;;5013891;28;20034;-49
2021/12/18 01:41:22;;;;;;;3.58;2.40;;;6.40;99.90;;;;;;5026299;28;20030;-56
2021/12/18 01:47:07;;;;;;;3.90;2.08;;;6.40;99.90;;;;;;5010614;28;20412;-52
2021/12/18 01:52:20;;;;;;;3.55;2.47;;;6.40;99.90;;;;;;4997854;28;20073;-52
2021/12/18 01:54:47;;;;;;;5.13;2.75;;;6.40;99.90;;;;;;5010567;28;20496;-54
2021/12/18 01:57:13;;;;;;;3.55;2.95;;;6.40;99.90;;;;;;5010053;28;20026;-52
2021/12/18 01:59:47;;;;;;;3.80;2.65;;;6.40;99.90;;;;;;5002798;28;20397;-51
2021/12/18 02:02:13;;;;;;;3.63;2.67;;;6.40;99.90;;;;;;4988099;28;20038;-54
2021/12/18 02:04:40;;;;;;;5.40;2.55;;;6.40;99.90;;;;;;4988845;28;20477;-49
2021/12/18 02:07:07;;;;;;;4.05;2.40;;;6.40;99.90;;;;;;4990102;28;20480;-50
2021/12/18 02:10:02;;;;;;;4.35;2.88;;;6.40;99.90;;;;;;4990132;28;20100;-52
2021/12/18 02:12:20;;;;;;;4.85;3.53;;;6.50;99.90;;;;;;4989990;28;20034;-49
2021/12/18 02:22:56;;;;;;;7.10;3.72;;;6.50;99.90;;;;;;4990354;28;20172;-50
2021/12/18 02:25:23;;;;;;;6.45;3.50;;;6.50;99.90;;;;;;4990424;28;20543;-51
2021/12/18 02:27:51;;;;;;;5.57;3.85;;;6.50;99.90;;;;;;4989036;28;20033;-54
2021/12/18 02:30:21;;;;;;;5.65;3.38;;;6.50;99.90;;;;;;4990307;28;20113;-49
2021/12/18 02:32:47;;;;;;;6.45;3.15;;;6.50;99.90;;;;;;4990540;28;20117;-49
2021/12/18 02:35:27;;;;;;;8.32;3.97;;;6.50;99.90;;;;;;5000276;28;20072;-50
2021/12/18 02:38:07;;;;;;;7.28;4.57;;;6.50;99.90;;;;;;5004430;28;20104;-51
2021/12/18 02:43:17;;;;;;;6.75;4.07;;;6.50;99.90;;;;;;5009833;28;20021;-52
2021/12/18 02:45:42;;;;;;;9.55;4.57;;;6.50;99.90;;;;;;5016340;28;20037;-49
2021/12/18 02:48:08;;;;;;;10.95;5.57;;;6.50;99.90;;;;;;5028871;28;20125;-52
2021/12/18 02:50:37;;;;;;;11.05;5.35;;;6.50;99.90;;;;;;5026983;28;20083;-51
2021/12/18 02:53:05;;;;;;;11.57;6.82;;;6.60;99.90;;;;;;5012530;28;20069;-49
2021/12/18 02:55:31;;;;;;;11.13;6.72;;;6.50;99.90;;;;;;5009375;28;20069;-51
2021/12/18 02:57:56;;;;;;;13.75;6.78;;;6.50;99.90;;;;;;5024941;28;20072;-53
2021/12/18 03:00:24;;;;;;;11.75;5.88;;;6.50;99.90;;;;;;5011647;28;20504;-51
2021/12/18 03:02:50;;;;;;;10.35;5.70;;;6.50;99.90;;;;;;5021055;28;20033;-55
2021/12/18 03:05:23;;;;;;;12.20;5.80;;;6.50;99.90;;;;;;5010160;28;20025;-48
2021/12/18 03:07:54;;;;;;;10.50;5.93;;;6.50;99.90;;;;;;5009142;28;20048;-51
2021/12/18 03:26:55;;;;;;;9.85;5.45;;;6.60;99.90;;;;;;4985035;28;20082;-51
2021/12/18 03:29:21;;;;;;;8.60;5.80;;;6.60;99.90;;;;;;4990012;28;20062;-53
2021/12/18 03:31:46;;;;;;;7.30;4.68;;;6.60;99.90;;;;;;4993165;28;20569;-50
2021/12/18 03:34:12;;;;;;;8.95;5.68;;;6.60;99.90;;;;;;4993128;28;20121;-49
2021/12/18 03:36:38;;;;;;;7.47;5.43;;;6.60;99.90;;;;;;4992787;28;20053;-51
2021/12/18 03:39:04;;;;;;;9.15;5.65;;;6.60;99.90;;;;;;4992751;28;20084;-54
2021/12/18 03:41:29;;;;;;;8.50;5.43;;;6.60;99.90;;;;;;4993152;28;20069;-54
2021/12/18 03:43:55;;;;;;;9.13;5.70;;;6.60;99.90;;;;;;4993022;28;20108;-51
2021/12/18 03:46:21;;;;;;;9.00;5.25;;;6.60;99.90;;;;;;4993163;28;20541;-48
2021/12/18 03:48:46;;;;;;;7.78;4.75;;;6.60;99.90;;;;;;4992574;28;20035;-53
2021/12/18 03:51:12;;;;;;;7.28;4.63;;;6.60;99.90;;;;;;4992972;28;20505;-55
2021/12/18 03:53:37;;;;;;;8.68;4.50;;;6.60;99.90;;;;;;4992803;28;20034;-50
2021/12/18 03:56:03;;;;;;;6.55;3.92;;;6.60;99.90;;;;;;4996002;28;20037;-49
2021/12/18 03:58:29;;;;;;;6.07;3.55;;;6.60;99.90;;;;;;5015306;28;20144;-49
2021/12/18 04:00:55;;;;;;;5.70;3.97;;;6.60;99.90;;;;;;5012263;28;20137;-52
2021/12/18 04:03:21;;;;;;;3.00;2.58;;;6.60;99.90;;;;;;5012333;28;20079;-51
2021/12/18 04:05:46;;;;;;;5.85;2.70;;;6.60;99.90;;;;;;5023865;28;20038;-56
2021/12/18 04:08:12;;;;;;;4.32;3.15;;;6.60;99.90;;;;;;5031278;28;20080;-50
2021/12/18 04:10:39;;;;;;;5.55;3.08;;;6.60;99.90;;;;;;5030231;28;20033;-51
2021/12/18 04:13:07;;;;;;;4.53;3.10;;;6.60;99.90;;;;;;5031901;28;20033;-50
2021/12/18 04:15:33;;;;;;;4.25;3.17;;;6.70;99.90;;;;;;5030129;28;20037;-55
2021/12/18 04:17:58;;;;;;;6.30;3.67;;;6.60;99.90;;;;;;5022523;28;20044;-56
2021/12/18 04:20:24;;;;;;;5.70;3.25;;;6.70;99.90;;;;;;5012908;28;20068;-53
2021/12/18 04:22:50;;;;;;;5.47;3.50;;;6.70;99.90;;;;;;5021401;28;20041;-50
2021/12/18 04:25:16;;;;;;;10.43;3.70;;;6.60;99.90;;;;;;5014689;28;20030;-48
2021/12/18 04:27:41;;;;;;;6.38;3.65;;;6.60;99.90;;;;;;5011531;28;20408;-49
2021/12/18 04:30:07;;;;;;;5.85;4.28;;;6.60;99.90;;;;;;5010352;28;20122;-53
2021/12/18 04:32:33;;;;;;;9.13;4.40;;;6.60;99.90;;;;;;5011675;28;20040;-53
2021/12/18 04:34:59;;;;;;;8.02;4.43;;;6.60;99.90;;;;;;5011395;28;20443;-51
2021/12/18 04:37:24;;;;;;;7.63;5.03;;;6.60;99.90;;;;;;5011462;28;20034;-52
2021/12/18 04:39:51;;;;;;;8.02;4.80;;;6.60;99.90;;;;;;5011279;28;20519;-50
2021/12/18 04:42:17;;;;;;;6.95;4.82;;;6.70;99.90;;;;;;5010771;28;20087;-50
2021/12/18 04:44:42;;;;;;;8.43;4.97;;;6.60;99.90;;;;;;5005284;28;20502;-51
2021/12/18 04:47:08;;;;;;;7.15;5.13;;;6.70;99.90;;;;;;5001376;28;20037;-50
2021/12/18 04:49:34;;;;;;;8.32;4.90;;;6.70;99.90;;;;;;5009556;28;20485;-55
2021/12/18 04:51:59;;;;;;;7.68;6.07;;;6.70;99.90;;;;;;5011000;28;20044;-55
2021/12/18 04:54:25;;;;;;;8.30;5.40;;;6.70;99.90;;;;;;5011019;28;20088;-54
2021/12/18 04:56:51;;;;;;;7.75;5.82;;;6.70;99.90;;;;;;5011090;28;20539;-52
2021/12/18 04:59:16;;;;;;;6.88;5.43;;;6.70;99.90;;;;;;5010355;28;20557;-50
2021/12/18 05:01:42;;;;;;;6.30;5.20;;;6.70;99.90;;;;;;5011116;28;20026;-51
2021/12/18 05:04:11;;;;;;;7.90;5.80;;;6.80;99.90;;;;;;5010899;28;20026;-56
2021/12/18 05:06:40;;;;;;;7.65;5.50;;;6.70;99.90;;;;;;5010688;28;20030;-54
2021/12/18 05:09:06;;;;;;;8.73;6.03;;;6.70;99.90;;;;;;5010818;28;20034;-53
2021/12/18 05:11:32;;;;;;;7.45;5.47;;;6.70;99.90;;;;;;5011378;28;20144;-52
2021/12/18 05:13:57;;;;;;;9.25;5.47;;;6.70;99.90;;;;;;5009068;28;20034;-51
2021/12/18 05:16:23;;;;;;;7.07;5.43;;;6.70;99.90;;;;;;5010467;28;20036;-49
2021/12/18 05:18:49;;;;;;;9.30;5.70;;;6.70;99.90;;;;;;5010325;28;20030;-48
2021/12/18 05:21:14;;;;;;;6.25;4.82;;;6.70;99.90;;;;;;5010119;28;20115;-53
2021/12/18 05:23:43;;;;;;;7.35;5.00;;;6.70;99.90;;;;;;5010830;28;20026;-51
2021/12/18 05:26:08;;;;;;;8.50;4.90;;;6.70;99.90;;;;;;4993810;28;20033;-55
2021/12/18 05:28:34;;;;;;;9.95;5.93;;;6.70;99.90;;;;;;5019348;28;20487;-51
2021/12/18 05:30:59;;;;;;;8.48;5.95;;;6.70;99.90;;;;;;5010388;28;20030;-51
2021/12/18 05:33:25;;;;;;;5.97;4.50;;;6.70;99.90;;;;;;5010636;28;20098;-50
2021/12/18 05:35:51;;;;;;;8.60;6.07;;;6.70;99.90;;;;;;5010091;28;20080;-57
2021/12/18 05:38:16;;;;;;;6.95;4.75;;;6.60;99.90;;;;;;5010145;28;20096;-49
2021/12/18 05:40:42;;;;;;;5.45;4.60;;;6.70;99.90;;;;;;5010803;28;20137;-53
2021/12/18 05:43:08;;;;;;;3.92;3.63;;;6.60;99.90;;;;;;5009102;28;20431;-53
2021/12/18 05:45:35;;;;;;;3.50;3.20;;;6.60;99.90;;;;;;5010467;28;20109;-49
2021/12/18 05:48:01;;;;;;;5.00;3.58;;;6.60;99.90;;;;;;5009971;28;20052;-51
2021/12/18 05:50:29;;;;;;;3.50;3.20;;;6.50;99.90;;;;;;5010775;28;20025;-51
2021/12/18 05:52:55;;;;;;;3.38;2.85;;;6.50;99.90;;;;;;5010068;28;20034;-51
2021/12/18 05:55:23;;;;;;;2.45;2.13;;;6.50;99.90;;;;;;5010655;28;20304;-50
2021/12/18 05:57:49;;;;;;;2.38;1.90;;;6.50;99.90;;;;;;5009956;28;20083;-48
2021/12/18 06:00:16;;;;;;;2.33;1.98;;;6.50;99.90;;;;;;5010230;28;20109;-52
2021/12/18 06:02:41;;;;;;;1.67;1.58;;;6.40;99.90;;;;;;5010067;28;20523;-56
2021/12/18 06:05:07;;;;;;;1.98;1.80;;;6.40;99.90;;;;;;5009963;28;20053;-50
2021/12/18 06:07:57;;;;;;;3.40;2.47;;;6.40;99.90;;;;;;5009834;28;20032;-52
2021/12/18 06:10:31;;;;;;;3.08;2.53;;;6.40;99.90;;;;;;5010183;28;20470;-52
2021/12/18 06:12:59;;;;;;;4.85;4.05;;;6.50;99.90;;;;;;5009874;28;20026;-48
2021/12/18 06:15:25;;;;;;;3.58;2.90;;;6.50;99.90;;;;;;5009960;28;20476;-53
2021/12/18 06:17:53;;;;;;;3.85;3.42;;;6.50;99.90;;;;;;5010138;28;20042;-55
2021/12/18 06:20:18;;;;;;;3.67;3.30;;;6.40;99.90;;;;;;5010591;28;20034;-52
2021/12/18 06:22:44;;;;;;;5.65;3.60;;;6.50;99.90;;;;;;5010354;28;20033;-49
2021/12/18 06:25:09;;;;;;;3.60;3.30;;;6.40;99.90;;;;;;5009507;28;20022;-48
2021/12/18 06:27:35;;;;;;;4.63;3.35;;;6.40;99.90;;;;;;5005507;28;20030;-51
2021/12/18 06:30:02;;;;;;;3.55;3.10;;;6.50;99.90;;;;;;4993426;28;20088;-54
2021/12/18 06:32:27;;;;;;;3.60;3.30;;;6.50;99.90;;;;;;5005434;28;20033;-49
2021/12/18 06:34:53;;;;;;;3.20;2.90;;;6.40;99.90;;;;;;5009377;28;20503;-52
2021/12/18 06:37:18;;;;;;;4.00;3.28;;;6.50;99.90;;;;;;5009612;28;20045;-48
2021/12/18 06:39:44;;;;;;;6.05;3.72;;;6.40;99.90;;;;;;5008962;28;20087;-49
2021/12/18 06:42:09;;;;;;;4.82;3.75;;;6.50;99.90;;;;;;5009433;28;20053;-49
2021/12/18 06:44:35;;;;;;;4.18;3.78;;;6.50;99.90;;;;;;5009255;28;20038;-52
2021/12/18 06:47:00;;;;;;;6.78;4.13;;;6.40;99.90;;;;;;5009186;28;20084;-49
2021/12/18 06:49:26;;;;;;;4.78;3.85;;;6.50;99.90;;;;;;5009112;28;20108;-51
2021/12/18 06:51:52;;;;;;;2.95;2.65;;;6.50;99.90;;;;;;5009737;28;20034;-48
2021/12/18 06:54:17;;;;;;;3.47;3.08;;;6.40;99.90;;;;;;5009551;28;20500;-51
2021/12/18 06:56:43;;;;;;;3.25;2.95;;;6.50;99.90;;;;;;5009320;28;20030;-48
2021/12/18 06:59:08;;;;;;;3.97;3.58;;;6.40;99.90;;;;;;5009226;28;20045;-49
2021/12/18 07:01:36;;;;;;;3.90;3.35;;;6.50;99.90;;;;;;5009838;28;20105;-49
2021/12/18 07:04:01;;;;;;;5.18;3.97;;;6.40;99.90;;;;;;5009587;28;20644;-51
2021/12/18 07:06:28;;;;;;;4.03;3.63;;;6.50;99.90;;;;;;5013453;28;20034;-48
2021/12/18 07:08:54;;;;;;;3.72;3.15;;;6.50;99.90;;;;;;5013098;28;20092;-51
2021/12/18 07:11:19;;;;;;;4.43;3.60;;;6.50;99.90;;;;;;5013402;28;20037;-49
2021/12/18 07:13:45;;;;;;;3.85;3.22;;;6.50;99.90;;;;;;5013096;28;20400;-49
2021/12/18 07:16:11;;;;;;;4.07;3.67;;;6.40;99.90;;;;;;5013196;28;20064;-51
2021/12/18 07:18:36;;;;;;;3.17;2.88;;;6.50;99.90;;;;;;5015335;28;20033;-50
2021/12/18 07:21:02;;;;;;;4.53;3.63;;;6.50;99.90;;;;;;5024161;28;20030;-52
2021/12/18 07:23:28;;;;;;;5.00;3.75;;;6.40;99.90;;;;;;5028222;28;20511;-48
2021/12/18 07:25:54;;;;;;;4.85;3.75;;;6.50;99.90;;;;;;5032458;28;20403;-51
2021/12/18 07:28:19;;;;;;;4.60;4.13;;;6.50;99.90;;;;;;5030608;28;20128;-48
2021/12/18 07:30:45;;;;;;;5.30;3.85;;;6.40;99.90;;;;;;5030445;28;20483;-51
2021/12/18 07:33:11;;;;;;;7.05;4.88;;;6.40;99.90;;;;;;5012902;28;20403;-55
2021/12/18 07:35:41;;;;;;;6.88;5.07;;;6.50;99.90;;;;;;5013626;28;20041;-55
2021/12/18 07:38:07;;;;;;;7.28;4.65;;;6.50;99.90;;;;;;5031997;28;20048;-58
2021/12/18 07:40:34;;;;;;;5.45;4.50;;;6.50;99.90;;;;;;5029503;28;20029;-56
2021/12/18 07:43:00;;;;;;;5.60;3.60;;;6.50;99.90;;;;;;5028714;28;20029;-49
2021/12/18 07:45:25;;;;;;;3.70;3.20;;;6.50;99.90;;;;;;5029947;28;20132;-51
2021/12/18 07:47:51;;;;;;;4.03;3.60;;;6.40;99.90;;;;;;5031654;28;20045;-53
2021/12/18 07:50:20;;;;;;;4.35;3.28;;;6.40;99.90;;;;;;5021623;28;20058;-49
2021/12/18 07:52:49;;;;;;;3.20;2.10;;;6.50;99.90;;;;;;5012569;28;20030;-51
2021/12/18 07:55:17;;;;;;;3.88;2.10;;;6.40;99.90;;;;;;5012365;28;20033;-52
2021/12/18 07:57:42;;;;;;;2.90;2.60;;;6.40;99.90;;;;;;5011987;28;20583;-49
2021/12/18 08:00:11;;;;;;;3.13;2.38;;;6.40;99.90;;;;;;5010033;28;20117;-49
2021/12/18 08:02:37;;;;;;;4.05;2.53;;;6.40;99.90;;;;;;5012326;28;20563;-50
2021/12/18 08:05:04;;;;;;;3.35;2.80;;;6.50;99.90;;;;;;5012345;28;20030;-49
2021/12/18 08:07:29;;;;;;;3.30;2.60;;;6.50;99.90;;;;;;5012139;28;20030;-58
2021/12/18 08:09:55;;;;;;;3.33;2.80;;;6.40;99.90;;;;;;5012178;28;20091;-50
2021/12/18 08:12:20;;;;;;;7.85;4.78;;;6.50;99.90;;;;;;5012174;28;20030;-49
2021/12/18 08:14:46;;;;;;;7.30;5.30;;;6.50;99.90;;;;;;5011055;28;20121;-55
2021/12/18 08:17:11;;;;;;;6.72;5.15;;;6.50;99.90;;;;;;5010817;28;20030;-50
2021/12/18 08:19:37;;;;;;;9.90;7.07;;;6.50;99.90;;;;;;5012159;28;20041;-51
2021/12/18 08:22:03;;;;;;;9.30;6.07;;;6.50;99.90;;;;;;5011879;28;20034;-50
2021/12/18 08:24:28;;;;;;;13.70;8.23;;;6.50;99.90;;;;;;5011721;28;20037;-52
2021/12/18 08:26:54;;;;;;;13.55;8.60;;;6.50;99.90;;;;;;5030006;28;20535;-56
2021/12/18 08:29:20;;;;;;;13.00;8.93;;;6.50;99.90;;;;;;5031395;28;20091;-49
2021/12/18 08:31:46;;;;;;;12.23;8.15;;;6.50;99.90;;;;;;5015187;28;20032;-51
2021/12/18 08:34:13;;;;;;;13.18;9.40;;;6.50;99.90;;;;;;5015453;28;20032;-56
2021/12/18 08:36:39;;;;;;;13.75;9.25;;;6.50;99.90;;;;;;5010491;28;20052;-59
2021/12/18 08:39:05;;;;;;;12.98;10.15;;;6.50;99.90;;;;;;5011549;28;20376;-59
2021/12/18 08:41:33;;;;;;;17.33;9.40;;;6.50;99.90;;;;;;5015344;28;20056;-56
2021/12/18 08:43:58;;;;;;;15.35;10.60;;;6.50;99.90;;;;;;5010380;28;20033;-60
2021/12/18 08:46:24;;;;;;;16.35;10.73;;;6.50;99.90;;;;;;5015623;28;20396;-58
2021/12/18 08:48:49;;;;;;;16.70;10.13;;;6.50;99.90;;;;;;5010138;28;20468;-50
2021/12/18 08:51:15;;;;;;;14.13;10.20;;;6.50;99.90;;;;;;5011307;28;20038;-54
2021/12/18 08:53:41;;;;;;;17.35;10.88;;;6.50;99.90;;;;;;5010687;28;20034;-55
2021/12/18 08:56:06;;;;;;;13.82;10.52;;;6.50;99.90;;;;;;5010768;28;20041;-50
2021/12/18 08:58:32;;;;;;;17.33;10.10;;;6.50;99.90;;;;;;5010399;28;20124;-53
2021/12/18 09:00:58;;;;;;;17.27;11.13;;;6.50;99.90;;;;;;5010287;28;20137;-52
2021/12/18 09:03:24;;;;;;;14.80;10.10;;;6.50;99.90;;;;;;5011991;28;20038;-52
2021/12/18 09:05:50;;;;;;;14.75;9.18;;;6.60;99.90;;;;;;5010033;28;20442;-53
2021/12/18 09:08:16;;;;;;;14.73;9.27;;;6.50;99.90;;;;;;5009366;28;20029;-55
2021/12/18 09:10:41;;;;;;;12.30;8.05;;;6.50;99.90;;;;;;5010228;28;20437;-52
2021/12/18 09:13:07;;;;;;;11.70;7.85;;;6.50;99.90;;;;;;5010322;28;20037;-53
2021/12/18 09:15:33;;;;;;;14.40;8.25;;;6.50;99.90;;;;;;5009979;28;20033;-51
2021/12/18 09:17:58;;;;;;;7.47;5.63;;;6.50;99.90;;;;;;5010550;28;20038;-49
2021/12/18 09:20:24;;;;;;;11.23;6.43;;;6.50;99.90;;;;;;5011306;28;20029;-53
2021/12/18 09:22:50;;;;;;;10.50;6.00;;;6.50;99.90;;;;;;5010738;28;20547;-55
2021/12/18 09:25:16;;;;;;;8.85;5.32;;;6.50;99.90;;;;;;5009994;28;20056;-54
2021/12/18 09:27:41;;;;;;;5.05;3.88;;;6.50;99.90;;;;;;5013750;28;20069;-55
2021/12/18 09:30:11;;;;;;;6.53;4.25;;;6.50;99.90;;;;;;5015419;28;20304;-49
2021/12/18 09:32:37;;;;;;;6.45;4.07;;;6.50;99.90;;;;;;5009197;28;20042;-51
2021/12/18 09:35:05;;;;;;;6.55;3.55;;;6.60;99.90;;;;;;5008809;28;20447;-53
2021/12/18 09:37:30;;;;;;;6.53;4.07;;;6.50;99.90;;;;;;5010239;28;20034;-58
2021/12/18 09:39:56;;;;;;;6.32;4.28;;;6.60;99.90;;;;;;5009207;28;20032;-50
2021/12/18 09:42:22;;;;;;;9.82;4.53;;;6.60;99.90;;;;;;5009968;28;20102;-54
2021/12/18 09:44:50;;;;;;;7.43;4.68;;;6.60;99.90;;;;;;5008294;28;20088;-51
2021/12/18 09:47:18;;;;;;;7.40;4.50;;;6.60;99.90;;;;;;5009983;28;20076;-52
2021/12/18 09:49:45;;;;;;;8.43;4.95;;;6.60;99.90;;;;;;5009268;28;20048;-56
2021/12/18 09:52:10;;;;;;;6.75;4.68;;;6.70;99.90;;;;;;5010772;28;20112;-54
2021/12/18 09:54:36;;;;;;;6.22;4.80;;;6.70;99.90;;;;;;5009496;28;20097;-54
2021/12/18 09:57:02;;;;;;;8.13;4.78;;;6.70;99.90;;;;;;5009038;28;20080;-57
2021/12/18 09:59:28;;;;;;;7.60;4.85;;;6.70;99.90;;;;;;5009426;28;20484;-51
2021/12/18 10:01:53;;;;;;;9.82;5.80;;;6.80;99.90;;;;;;5007978;28;20033;-53
2021/12/18 10:04:32;;;;;;;8.05;4.50;;;6.70;99.90;;;;;;5009504;28;20026;-54
2021/12/18 10:07:00;;;;;;;9.68;5.80;;;6.80;99.90;;;;;;5019723;28;20025;-54
2021/12/18 10:09:26;;;;;;;7.13;4.47;;;6.80;99.90;;;;;;5029279;28;20079;-50
2021/12/18 10:11:56;;;;;;;8.40;4.20;;;6.90;99.90;;;;;;5027299;28;20034;-52
2021/12/18 10:14:37;;;;;;;6.10;3.83;;;6.90;99.90;;;;;;5028917;28;20554;-56
2021/12/18 10:17:16;;;;;;;5.50;3.75;;;6.90;99.90;;;;;;4989520;28;20038;-58
2021/12/18 10:19:42;;;;;;;11.23;4.28;;;7.00;99.90;;;;;;4989836;28;20370;-52
2021/12/18 10:22:10;;;;;;;10.00;5.25;;;7.00;99.90;;;;;;5010279;28;20064;-58
2021/12/18 10:24:39;;;;;;;7.28;4.35;;;7.00;99.90;;;;;;5008915;28;20021;-53
2021/12/18 10:27:22;;;;;;;6.53;3.83;;;7.00;99.90;;;;;;4988328;28;1143147;-53
2021/12/18 10:29:49;;;;;;;9.52;3.88;;;7.00;99.90;;;;;;5027349;28;20041;-54
2021/12/18 10:32:19;;;;;;;11.02;4.50;;;7.10;99.90;;;;;;5029526;28;20043;-55
2021/12/18 10:34:56;;;;;;;7.82;4.38;;;7.10;99.90;;;;;;5029308;28;20091;-55
2021/12/18 10:37:23;;;;;;;9.05;4.00;;;7.10;99.90;;;;;;5017106;28;20041;-58
2021/12/18 10:39:54;;;;;;;8.07;3.33;;;7.10;99.90;;;;;;5013069;28;20030;-55
2021/12/18 10:42:35;;;;;;;7.68;3.28;;;7.10;99.90;;;;;;5008220;28;20084;-58
2021/12/18 10:45:23;;;;;;;5.68;3.50;;;7.20;99.90;;;;;;5005597;28;20558;-56
2021/12/18 10:48:01;;;;;;;6.50;3.42;;;7.20;99.90;;;;;;4998957;28;20083;-57
2021/12/18 10:50:34;;;;;;;12.38;3.15;;;7.20;99.90;;;;;;5009287;28;20424;-60
2021/12/18 10:53:05;;;;;;;8.23;3.05;;;7.30;99.90;;;;;;4998415;28;20076;-50
2021/12/18 10:55:36;;;;;;;7.55;3.50;;;7.30;99.90;;;;;;5009156;28;20076;-58
2021/12/18 10:58:04;;;;;;;7.32;3.72;;;7.30;99.90;;;;;;5000069;28;20133;-55
2021/12/18 11:00:32;;;;;;;10.07;3.60;;;7.40;99.90;;;;;;5005894;28;20029;-52
2021/12/18 11:03:11;;;;;;;13.55;2.83;;;7.40;99.90;;;;;;4998735;28;20031;-52
2021/12/18 11:05:37;;;;;;;9.85;2.80;;;7.40;99.90;;;;;;4993820;28;20290;-52
2021/12/18 11:08:11;;;;;;;10.27;3.20;;;7.40;99.90;;;;;;4996394;28;20042;-55
2021/12/18 11:10:53;;;;;;;11.18;3.33;;;7.50;99.90;;;;;;5000379;28;20037;-55
2021/12/18 11:16:05;;;;;;;8.63;2.80;;;7.50;99.90;;;;;;5016470;28;20428;-53
2021/12/18 11:18:33;;;;;;;9.82;2.85;;;7.60;99.90;;;;;;5000325;28;20030;-55
2021/12/18 11:20:59;;;;;;;9.80;3.30;;;7.60;99.90;;;;;;4997427;28;20548;-55
2021/12/18 11:23:46;;;;;;;11.52;3.40;;;7.70;99.90;;;;;;4997667;28;20033;-56
2021/12/18 11:26:14;;;;;;;12.13;3.28;;;7.70;99.90;;;;;;4993490;28;20030;-53
2021/12/18 11:28:43;;;;;;;10.43;4.05;;;7.70;99.90;;;;;;5002917;28;20039;-54
2021/12/18 11:31:10;;;;;;;11.23;4.03;;;7.70;99.90;;;;;;4996558;28;20481;-50
2021/12/18 11:33:37;;;;;;;9.65;4.50;;;7.80;99.90;;;;;;4997830;28;20030;-58
2021/12/18 11:36:04;;;;;;;6.75;4.45;;;7.80;99.90;;;;;;5005704;28;20042;-51
2021/12/18 11:38:32;;;;;;;11.93;5.20;;;7.80;99.90;;;;;;4999244;28;20125;-54
2021/12/18 11:40:59;;;;;;;13.18;5.38;;;7.80;99.90;;;;;;4998187;28;20026;-54
2021/12/18 11:43:37;;;;;;;10.02;4.95;;;7.80;99.90;;;;;;4996659;28;20034;-53
2021/12/18 11:46:27;;;;;;;18.67;5.72;;;7.80;99.90;;;;;;4996475;28;20038;-52
2021/12/18 11:48:55;;;;;;;16.67;5.90;;;7.90;99.90;;;;;;4999200;28;20042;-50
2021/12/18 11:51:21;;;;;;;16.80;5.55;;;7.90;99.90;;;;;;5003523;28;20045;-57
2021/12/18 11:53:46;;;;;;;10.82;5.35;;;7.90;99.90;;;;;;4992667;28;20030;-56
2021/12/18 11:56:12;;;;;;;14.57;5.32;;;8.00;99.90;;;;;;4999095;28;20144;-51
2021/12/18 11:58:44;;;;;;;8.82;4.88;;;8.00;99.90;;;;;;5001336;28;20034;-50
2021/12/18 12:01:37;;;;;;;10.38;5.03;;;8.00;99.90;;;;;;4998711;28;20022;-52
2021/12/18 12:04:03;;;;;;;10.43;4.28;;;8.10;99.90;;;;;;4992483;28;20078;-51
2021/12/18 12:06:34;;;;;;;14.73;4.68;;;8.10;99.90;;;;;;5000335;28;20489;-57
2021/12/18 12:09:25;;;;;;;12.77;4.05;;;8.10;99.90;;;;;;4998511;28;20040;-53
2021/12/18 12:12:05;;;;;;;10.98;4.53;;;8.20;99.90;;;;;;5003511;28;20109;-50
2021/12/18 12:14:34;;;;;;;14.73;4.03;;;8.20;99.90;;;;;;5000870;28;20041;-57
2021/12/18 12:17:10;;;;;;;17.60;4.68;;;8.20;99.90;;;;;;4999360;28;20034;-54
2021/12/18 12:19:35;;;;;;;9.73;3.40;;;8.20;99.90;;;;;;5000122;28;20522;-53
2021/12/18 12:22:04;;;;;;;9.10;3.35;;;8.20;99.90;;;;;;4992330;28;20050;-50
2021/12/18 12:24:54;;;;;;;13.90;4.45;;;8.30;99.90;;;;;;4999270;28;20563;-57
2021/12/18 12:27:25;;;;;;;13.20;2.85;;;8.30;99.90;;;;;;4996661;28;20396;-53
2021/12/18 12:29:51;;;;;;;7.80;3.13;;;8.30;99.90;;;;;;4999509;28;20488;-52
2021/12/18 12:32:20;;;;;;;10.55;3.75;;;8.30;99.90;;;;;;4994117;28;20034;-50
2021/12/18 12:35:06;;;;;;;7.35;3.33;;;8.40;99.90;;;;;;5001634;28;20357;-50
2021/12/18 12:37:34;;;;;;;9.70;2.53;;;8.40;99.90;;;;;;4995016;28;20046;-54
2021/12/18 12:40:10;;;;;;;12.73;3.60;;;8.40;99.90;;;;;;4997974;28;20073;-57
2021/12/18 12:42:38;;;;;;;9.85;3.08;;;8.40;99.90;;;;;;4992572;28;20082;-57
2021/12/18 12:45:14;;;;;;;12.80;3.33;;;8.40;99.90;;;;;;4989943;28;20391;-50
2021/12/18 12:47:40;;;;;;;;;;;8.50;99.90;;;;;;4991734;28;20603;-54
2021/12/18 12:50:12;;;;;;;11.30;3.58;;;8.50;99.90;;;;;;4991597;28;20008;-52
2021/12/18 12:52:56;;;;;;;11.43;2.78;;;8.50;99.90;;;;;;4991849;28;20038;-50
2021/12/18 12:55:24;;;;;;;19.05;2.80;;;8.50;99.90;;;;;;4991477;28;20031;-50
2021/12/18 12:57:53;;;;;;;11.00;3.15;;;8.50;99.90;;;;;;4991395;28;20059;-51
2021/12/18 13:00:21;;;;;;;11.65;3.42;;;8.50;99.90;;;;;;4991180;28;20062;-53
2021/12/18 13:02:50;;;;;;;11.57;3.35;;;8.50;99.90;;;;;;4990546;28;20019;-55
2021/12/18 13:05:15;;;;;;;13.65;3.75;;;8.50;99.90;;;;;;4991338;28;20053;-59
2021/12/18 13:07:48;;;;;;;11.70;3.47;;;8.50;99.90;;;;;;4991028;28;20477;-56
2021/12/18 13:10:25;;;;;;;12.80;3.83;;;8.60;99.90;;;;;;4990013;28;20049;-51
2021/12/18 13:12:52;;;;;;;12.85;3.67;;;8.50;99.90;;;;;;4991231;28;20105;-53
2021/12/18 13:15:18;;;;;;;11.40;3.80;;;8.50;99.90;;;;;;4991429;28;20473;-52
2021/12/18 13:17:44;;;;;;;15.00;5.05;;;8.50;99.90;;;;;;4990803;28;20023;-50
2021/12/18 13:20:10;;;;;;;10.93;3.55;;;8.50;99.90;;;;;;4991379;28;20029;-55
2021/12/18 13:22:36;;;;;;;8.63;3.55;;;8.50;99.90;;;;;;4991220;28;20105;-53
2021/12/18 13:25:09;;;;;;;8.65;3.72;;;8.50;99.90;;;;;;4991024;28;20388;-56
2021/12/18 13:27:37;;;;;;;17.10;4.57;;;8.50;99.90;;;;;;4991100;28;20018;-55
2021/12/18 13:30:14;;;;;;;13.32;4.07;;;8.40;99.90;;;;;;4991230;28;20026;-50
2021/12/18 13:33:02;;;;;;;12.07;3.80;;;8.50;99.90;;;;;;5010939;28;20036;-52
2021/12/18 13:35:29;;;;;;;14.68;3.55;;;8.40;99.90;;;;;;5006964;28;20084;-53
2021/12/18 13:38:02;;;;;;;17.73;4.63;;;8.50;99.90;;;;;;5012421;28;20037;-50
2021/12/18 13:40:30;;;;;;;11.50;4.20;;;8.40;99.90;;;;;;4999850;28;20050;-56
2021/12/18 13:43:23;;;;;;;10.05;3.53;;;8.40;99.90;;;;;;4993299;28;20033;-57